createdAt,value
2018-07-07T00:00:20.774Z,10.23
2018-07-07T00:02:54.579Z,12.37
2018-07-07T00:05:29.248Z,11.63
2018-07-07T00:08:03.014Z,10.60
2018-07-07T00:10:36.903Z,11.65
2018-07-07T00:13:10.856Z,12.15
2018-07-07T00:15:44.659Z,10.88
2018-07-07T00:18:19.216Z,11.75
2018-07-07T00:20:53.809Z,11.68
2018-07-07T00:23:28.333Z,12.85
2018-07-07T00:26:02.186Z,10.93
2018-07-07T00:28:37.510Z,11.70
2018-07-07T00:31:11.329Z,12.23
2018-07-07T00:33:45.808Z,12.52
2018-07-07T00:36:19.692Z,12.60
2018-07-07T00:38:53.437Z,14.50
2018-07-07T00:41:28.002Z,12.43
2018-07-07T00:44:01.724Z,12.50
2018-07-07T00:46:35.598Z,12.40
2018-07-07T00:49:10.209Z,13.30
2018-07-07T00:51:43.948Z,12.85
2018-07-07T00:54:17.717Z,12.93
2018-07-07T00:56:51.612Z,13.55
2018-07-07T00:59:25.452Z,12.50
2018-07-07T01:02:00.778Z,12.65
2018-07-07T01:04:35.351Z,11.68
2018-07-07T01:07:09.020Z,12.30
2018-07-07T01:09:42.864Z,13.02
2018-07-07T01:12:16.418Z,12.75
2018-07-07T01:14:51.154Z,12.05
2018-07-07T01:17:24.814Z,12.98
2018-07-07T01:19:58.700Z,13.45
2018-07-07T01:22:32.420Z,12.85
2018-07-07T01:25:06.177Z,12.57
2018-07-07T01:27:40.057Z,13.52
2018-07-07T01:30:13.868Z,13.75
2018-07-07T01:32:47.640Z,13.60
2018-07-07T01:35:21.356Z,13.88
2018-07-07T01:37:55.110Z,11.93
2018-07-07T01:40:29.691Z,14.87
2018-07-07T01:43:03.396Z,12.32
2018-07-07T01:45:38.077Z,12.50
2018-07-07T01:48:11.876Z,13.00
2018-07-07T01:50:45.778Z,13.50
2018-07-07T01:53:20.341Z,14.00
2018-07-07T01:55:54.120Z,14.00
2018-07-07T01:58:28.056Z,12.82
2018-07-07T02:01:01.799Z,14.40
2018-07-07T02:03:36.421Z,13.25
2018-07-07T02:06:10.849Z,14.85
2018-07-07T02:08:44.448Z,14.98
2018-07-07T02:11:19.088Z,13.93
2018-07-07T02:13:52.881Z,12.27
2018-07-07T02:16:27.457Z,12.98
2018-07-07T02:19:01.161Z,14.38
2018-07-07T02:21:34.876Z,13.38
2018-07-07T02:24:08.752Z,13.98
2018-07-07T02:26:42.830Z,13.15
2018-07-07T02:29:16.613Z,19.12
2018-07-07T02:31:50.484Z,13.75
2018-07-07T02:34:25.081Z,14.23
2018-07-07T02:36:58.812Z,13.48
2018-07-07T02:39:33.503Z,14.20
2018-07-07T02:42:07.318Z,15.52
2018-07-07T02:44:41.916Z,14.35
2018-07-07T02:47:15.744Z,14.77
2018-07-07T02:49:49.357Z,14.68
2018-07-07T02:52:23.180Z,14.00
2018-07-07T02:54:57.851Z,14.30
2018-07-07T02:57:32.365Z,14.43
2018-07-07T03:00:05.987Z,15.05
2018-07-07T03:02:39.735Z,14.43
2018-07-07T03:05:13.408Z,13.48
2018-07-07T03:07:48.093Z,14.98
2018-07-07T03:10:22.651Z,14.40
2018-07-07T03:12:56.375Z,14.50
2018-07-07T03:15:30.209Z,13.98
2018-07-07T03:18:03.980Z,15.38
2018-07-07T03:20:38.699Z,14.02
2018-07-07T03:23:12.506Z,14.65
2018-07-07T03:25:46.136Z,13.75
2018-07-07T03:28:19.949Z,15.65
2018-07-07T03:30:54.547Z,15.00
2018-07-07T03:33:28.148Z,15.63
2018-07-07T03:36:02.658Z,15.13
2018-07-07T03:38:36.471Z,16.05
2018-07-07T03:41:10.145Z,16.33
2018-07-07T03:43:43.993Z,17.35
2018-07-07T03:46:17.781Z,15.98
2018-07-07T03:48:51.692Z,14.57
2018-07-07T03:51:25.544Z,16.08
2018-07-07T03:53:59.322Z,15.55
2018-07-07T03:56:33.063Z,15.65
2018-07-07T03:59:06.967Z,16.02
2018-07-07T04:01:40.745Z,16.75
2018-07-07T04:04:15.373Z,15.85
2018-07-07T04:06:49.949Z,15.70
2018-07-07T04:09:23.818Z,16.17
2018-07-07T04:11:57.680Z,16.27
2018-07-07T04:14:32.314Z,17.70
2018-07-07T04:17:05.977Z,16.62
2018-07-07T04:19:40.540Z,16.65
2018-07-07T04:22:14.208Z,17.15
2018-07-07T04:24:47.956Z,16.42
2018-07-07T04:27:22.439Z,16.65
2018-07-07T04:29:56.320Z,18.30
2018-07-07T04:32:30.980Z,16.05
2018-07-07T04:35:04.872Z,15.63
2018-07-07T04:37:38.691Z,17.10
2018-07-07T04:40:12.427Z,16.20
2018-07-07T04:42:46.261Z,15.80
2018-07-07T04:45:20.843Z,16.37
2018-07-07T04:47:54.608Z,17.20
2018-07-07T04:50:28.351Z,15.98
2018-07-07T04:53:02.992Z,17.27
2018-07-07T04:55:36.672Z,16.95
2018-07-07T04:58:10.638Z,16.12
2018-07-07T05:00:44.562Z,16.35
2018-07-07T05:03:18.330Z,17.90
2018-07-07T05:05:52.180Z,17.50
2018-07-07T05:08:26.774Z,16.60
2018-07-07T05:11:00.485Z,16.80
2018-07-07T05:13:34.368Z,17.50
2018-07-07T05:16:08.098Z,17.87
2018-07-07T05:18:41.912Z,17.30
2018-07-07T05:21:16.599Z,17.70
2018-07-07T05:23:50.350Z,15.10
2018-07-07T05:26:24.181Z,14.52
2018-07-07T05:28:58.454Z,16.23
2018-07-07T05:31:33.022Z,14.73
2018-07-07T05:34:07.679Z,14.60
2018-07-07T05:36:41.501Z,15.85
2018-07-07T05:39:16.105Z,13.90
2018-07-07T05:41:49.776Z,14.63
2018-07-07T05:44:23.429Z,14.25
2018-07-07T05:46:57.330Z,13.95
2018-07-07T05:49:30.992Z,15.60
2018-07-07T05:52:05.522Z,15.57
2018-07-07T05:54:39.240Z,15.63
2018-07-07T05:57:13.028Z,16.60
2018-07-07T05:59:46.729Z,15.32
2018-07-07T06:02:20.367Z,15.35
2018-07-07T06:04:55.040Z,16.62
2018-07-07T06:07:29.010Z,13.88
2018-07-07T06:10:02.874Z,14.18
2018-07-07T06:12:36.696Z,15.02
2018-07-07T06:15:10.583Z,15.45
2018-07-07T06:17:44.283Z,15.18
2018-07-07T06:20:17.906Z,14.23
2018-07-07T06:22:52.451Z,14.55
2018-07-07T06:25:26.318Z,14.10
2018-07-07T06:28:00.883Z,16.17
2018-07-07T06:30:35.493Z,14.55
2018-07-07T06:33:10.134Z,19.00
2018-07-07T06:35:43.996Z,14.27
2018-07-07T06:38:18.624Z,13.80
2018-07-07T06:40:53.076Z,13.43
2018-07-07T06:43:26.921Z,14.73
2018-07-07T06:46:00.832Z,15.00
2018-07-07T06:48:34.602Z,13.82
2018-07-07T06:51:08.383Z,14.70
2018-07-07T06:53:42.335Z,13.30
2018-07-07T06:56:16.941Z,14.38
2018-07-07T06:58:50.772Z,14.77
2018-07-07T07:01:25.391Z,14.32
2018-07-07T07:04:00.087Z,13.85
2018-07-07T07:06:33.857Z,14.43
2018-07-07T07:09:07.957Z,16.30
2018-07-07T07:11:41.745Z,17.02
2018-07-07T07:14:15.424Z,16.30
2018-07-07T07:16:49.920Z,17.53
2018-07-07T07:19:23.584Z,15.93
2018-07-07T07:21:57.671Z,17.30
2018-07-07T07:24:31.856Z,17.27
2018-07-07T07:27:07.638Z,17.70
2018-07-07T07:29:41.580Z,18.63
2018-07-07T07:32:16.084Z,16.77
2018-07-07T07:34:49.681Z,16.23
2018-07-07T07:37:24.295Z,20.37
2018-07-07T07:39:57.951Z,16.47
2018-07-07T07:42:31.678Z,17.23
2018-07-07T07:45:06.184Z,17.67
2018-07-07T07:47:39.912Z,17.30
2018-07-07T07:50:13.650Z,18.20
2018-07-07T07:52:47.491Z,16.30
2018-07-07T07:55:21.269Z,17.80
2018-07-07T07:57:55.060Z,17.87
2018-07-07T08:00:28.784Z,16.83
2018-07-07T08:03:02.589Z,19.40
2018-07-07T08:05:37.289Z,17.83
2018-07-07T08:08:11.157Z,18.93
2018-07-07T08:10:45.732Z,17.13
2018-07-07T08:13:20.253Z,17.67
2018-07-07T08:15:54.873Z,21.23
2018-07-07T08:18:29.391Z,15.00
2018-07-07T08:21:03.020Z,15.63
2018-07-07T08:23:36.900Z,21.17
2018-07-07T08:26:10.759Z,14.97
2018-07-07T08:28:45.317Z,14.90
2018-07-07T08:31:19.179Z,14.33
2018-07-07T08:33:53.002Z,14.20
2018-07-07T08:36:26.715Z,14.67
2018-07-07T08:39:00.335Z,15.73
2018-07-07T08:41:34.957Z,15.00
2018-07-07T08:44:09.030Z,17.83
2018-07-07T08:46:42.780Z,14.13
2018-07-07T08:49:17.427Z,13.13
2018-07-07T08:51:51.088Z,13.53
2018-07-07T08:54:24.955Z,12.57
2018-07-07T08:56:58.981Z,13.90
2018-07-07T08:59:33.039Z,13.03
2018-07-07T09:02:06.653Z,12.97
2018-07-07T09:04:40.686Z,13.60
2018-07-07T09:07:14.492Z,12.03
2018-07-07T09:09:48.345Z,11.50
2018-07-07T09:12:23.028Z,12.83
2018-07-07T09:14:56.843Z,12.67
2018-07-07T09:17:30.500Z,12.33
2018-07-07T09:20:05.014Z,12.40
2018-07-07T09:22:38.905Z,11.43
2018-07-07T09:25:12.550Z,10.23
2018-07-07T09:27:47.332Z,11.30
2018-07-07T09:30:21.863Z,13.53
2018-07-07T09:32:55.907Z,12.23
2018-07-07T09:35:29.734Z,12.23
2018-07-07T09:38:04.293Z,13.30
2018-07-07T09:40:38.744Z,13.63
2018-07-07T09:43:12.538Z,11.87
2018-07-07T09:45:46.959Z,11.97
2018-07-07T09:48:21.420Z,14.67
2018-07-07T09:50:55.272Z,14.47
2018-07-07T09:53:29.828Z,11.83
2018-07-07T09:56:03.656Z,14.27
2018-07-07T09:58:37.504Z,14.60
2018-07-07T10:01:12.030Z,15.83
2018-07-07T10:03:45.752Z,15.90
2018-07-07T10:06:19.531Z,13.90
2018-07-07T10:08:53.336Z,15.13
2018-07-07T10:11:27.051Z,15.17
2018-07-07T10:14:00.852Z,15.17
2018-07-07T10:16:35.396Z,15.70
2018-07-07T10:19:09.219Z,15.13
2018-07-07T10:21:43.835Z,13.10
2018-07-07T10:24:18.537Z,13.50
2018-07-07T10:26:52.469Z,13.07
2018-07-07T10:29:26.992Z,13.13
2018-07-07T10:32:00.733Z,12.43
2018-07-07T10:34:34.508Z,14.00
2018-07-07T10:37:08.277Z,12.70
2018-07-07T10:39:41.982Z,13.40
2018-07-07T10:42:15.845Z,13.30
2018-07-07T10:44:51.113Z,15.83
2018-07-07T10:47:26.111Z,16.80
2018-07-07T10:49:59.816Z,15.60
2018-07-07T10:52:34.460Z,15.93
2018-07-07T10:55:08.315Z,14.63
2018-07-07T10:57:42.181Z,14.13
2018-07-07T11:00:16.790Z,14.77
2018-07-07T11:02:50.578Z,15.47
2018-07-07T11:05:25.215Z,15.23
2018-07-07T11:07:59.736Z,15.60
2018-07-07T11:10:33.660Z,14.20
2018-07-07T11:13:07.470Z,15.70
2018-07-07T11:15:41.211Z,14.27
2018-07-07T11:18:15.749Z,12.90
2018-07-07T11:20:51.153Z,13.73
2018-07-07T11:23:25.757Z,14.17
2018-07-07T11:25:59.532Z,14.30
2018-07-07T11:28:33.405Z,13.90
2018-07-07T11:31:07.160Z,13.60
2018-07-07T11:33:41.763Z,13.67
2018-07-07T11:36:15.401Z,14.67
2018-07-07T11:38:49.881Z,13.53
2018-07-07T11:41:23.608Z,13.33
2018-07-07T11:43:58.016Z,15.93
2018-07-07T11:46:32.671Z,13.87
2018-07-07T11:49:06.344Z,14.77
2018-07-07T11:51:40.977Z,13.80
2018-07-07T11:54:14.765Z,15.70
2018-07-07T11:56:48.517Z,13.70
2018-07-07T11:59:22.208Z,13.17
2018-07-07T12:01:56.880Z,13.67
2018-07-07T12:04:30.639Z,13.53
2018-07-07T12:07:04.432Z,11.63
2018-07-07T12:09:38.984Z,13.20
2018-07-07T12:12:12.847Z,12.30
2018-07-07T12:14:46.628Z,11.30
2018-07-07T12:17:20.511Z,11.30
2018-07-07T12:19:55.849Z,12.33
2018-07-07T12:22:30.420Z,12.30
2018-07-07T12:25:04.041Z,11.97
2018-07-07T12:27:38.687Z,12.43
2018-07-07T12:30:13.183Z,12.90
2018-07-07T12:32:46.934Z,14.23
2018-07-07T12:35:21.512Z,13.30
2018-07-07T12:37:55.217Z,13.17
2018-07-07T12:40:29.103Z,11.27
2018-07-07T12:43:03.666Z,13.57
2018-07-07T12:45:38.344Z,13.33
2018-07-07T12:48:12.112Z,11.93
2018-07-07T12:50:46.509Z,12.07
2018-07-07T12:53:20.377Z,13.20
2018-07-07T12:55:55.883Z,12.90
2018-07-07T12:58:29.596Z,11.87
2018-07-07T13:01:03.744Z,11.53
2018-07-07T13:03:37.634Z,12.30
2018-07-07T13:06:11.452Z,13.00
2018-07-07T13:08:45.266Z,14.37
2018-07-07T13:11:19.035Z,14.47
2018-07-07T13:13:52.836Z,12.97
2018-07-07T13:16:26.652Z,12.63
2018-07-07T13:19:00.492Z,11.90
2018-07-07T13:21:34.250Z,12.43
2018-07-07T13:24:08.895Z,14.63
2018-07-07T13:26:43.463Z,13.03
2018-07-07T13:29:17.210Z,12.43
2018-07-07T13:31:51.112Z,13.90
2018-07-07T13:34:24.879Z,12.70
2018-07-07T13:36:58.630Z,13.23
2018-07-07T13:39:32.422Z,13.73
2018-07-07T13:42:06.281Z,12.70
2018-07-07T13:44:40.001Z,12.43
2018-07-07T13:47:14.682Z,13.03
2018-07-07T13:49:48.551Z,12.20
2018-07-07T13:52:22.493Z,12.10
2018-07-07T13:54:56.968Z,13.00
2018-07-07T13:57:30.871Z,13.57
2018-07-07T14:00:05.443Z,12.93
2018-07-07T14:02:39.232Z,13.63
2018-07-07T14:05:12.976Z,13.57
2018-07-07T14:07:47.653Z,12.90
2018-07-07T14:10:21.597Z,12.37
2018-07-07T14:12:56.929Z,13.07
2018-07-07T14:15:31.419Z,12.10
2018-07-07T14:18:05.264Z,13.17
2018-07-07T14:20:39.872Z,12.43
2018-07-07T14:23:13.749Z,14.70
2018-07-07T14:25:48.421Z,13.43
2018-07-07T14:28:22.246Z,12.37
2018-07-07T14:30:55.908Z,11.60
2018-07-07T14:33:30.410Z,13.07
2018-07-07T14:36:04.042Z,12.50
2018-07-07T14:38:37.790Z,13.07
2018-07-07T14:41:11.691Z,12.63
2018-07-07T14:43:45.548Z,11.40
2018-07-07T14:46:20.244Z,11.60
2018-07-07T14:48:53.981Z,11.67
2018-07-07T14:51:27.858Z,11.50
2018-07-07T14:54:02.388Z,12.13
2018-07-07T14:56:36.287Z,11.43
2018-07-07T14:59:10.016Z,11.90
2018-07-07T15:01:43.801Z,11.00
2018-07-07T15:04:17.643Z,11.87
2018-07-07T15:06:51.491Z,12.77
2018-07-07T15:09:25.431Z,12.70
2018-07-07T15:11:59.249Z,11.50
2018-07-07T15:14:33.766Z,13.20
2018-07-07T15:17:08.325Z,14.23
2018-07-07T15:19:42.824Z,12.10
2018-07-07T15:22:16.492Z,13.47
2018-07-07T15:24:50.343Z,11.53
2018-07-07T15:27:24.049Z,12.40
2018-07-07T15:29:58.676Z,10.00
2018-07-07T15:32:32.600Z,9.60
2018-07-07T15:35:06.436Z,11.00
2018-07-07T15:37:40.417Z,12.43
2018-07-07T15:40:14.195Z,10.70
2018-07-07T15:42:48.539Z,11.10
2018-07-07T15:45:23.077Z,11.53
2018-07-07T15:47:56.937Z,10.33
2018-07-07T15:50:30.778Z,10.17
2018-07-07T15:53:04.543Z,9.43
2018-07-07T15:55:39.219Z,11.00
2018-07-07T15:58:12.908Z,9.27
2018-07-07T16:00:47.025Z,10.90
2018-07-07T16:03:21.544Z,11.80
2018-07-07T16:05:55.469Z,11.20
2018-07-07T16:08:29.283Z,10.03
2018-07-07T16:11:03.140Z,11.40
2018-07-07T16:13:36.985Z,11.33
2018-07-07T16:16:10.745Z,10.73
2018-07-07T16:18:44.500Z,10.20
2018-07-07T16:21:18.300Z,11.23
2018-07-07T16:23:52.136Z,10.43
2018-07-07T16:26:25.938Z,10.37
2018-07-07T16:28:59.722Z,10.13
2018-07-07T16:31:34.354Z,11.10
2018-07-07T16:34:08.923Z,10.50
2018-07-07T16:36:42.680Z,13.63
2018-07-07T16:39:16.606Z,11.10
2018-07-07T16:41:50.468Z,11.40
2018-07-07T16:44:24.284Z,11.70
2018-07-07T16:46:57.895Z,10.77
2018-07-07T16:49:31.764Z,11.63
2018-07-07T16:52:06.286Z,11.30
2018-07-07T16:54:40.830Z,12.40
2018-07-07T16:57:14.463Z,10.97
2018-07-07T16:59:48.092Z,11.07
2018-07-07T17:02:21.980Z,10.87
2018-07-07T17:04:56.645Z,11.40
2018-07-07T17:07:30.385Z,11.60
2018-07-07T17:10:04.202Z,10.17
2018-07-07T17:12:38.915Z,10.13
2018-07-07T17:15:12.598Z,10.43
2018-07-07T17:17:46.307Z,10.60
2018-07-07T17:20:20.793Z,11.27
2018-07-07T17:22:54.492Z,12.10
2018-07-07T17:25:29.070Z,12.40
2018-07-07T17:28:03.693Z,11.57
2018-07-07T17:30:37.416Z,12.80
2018-07-07T17:33:11.068Z,12.27
2018-07-07T17:35:44.864Z,15.00
2018-07-07T17:38:19.441Z,13.00
2018-07-07T17:40:53.904Z,13.80
2018-07-07T17:43:27.815Z,13.00
2018-07-07T17:46:01.630Z,13.77
2018-07-07T17:48:35.327Z,12.87
2018-07-07T17:51:09.164Z,12.37
2018-07-07T17:53:42.989Z,15.90
2018-07-07T17:56:16.790Z,13.90
2018-07-07T17:58:50.515Z,12.87
2018-07-07T18:01:25.090Z,13.83
2018-07-07T18:03:59.694Z,13.00
2018-07-07T18:06:34.197Z,12.93
2018-07-07T18:09:08.768Z,13.03
2018-07-07T18:11:42.646Z,14.97
2018-07-07T18:14:16.320Z,14.20
2018-07-07T18:16:50.958Z,16.87
2018-07-07T18:19:24.639Z,15.60
2018-07-07T18:21:58.416Z,14.63
2018-07-07T18:24:32.287Z,16.93
2018-07-07T18:27:05.936Z,14.60
2018-07-07T18:29:39.637Z,14.60
2018-07-07T18:32:13.420Z,14.60
2018-07-07T18:34:47.046Z,14.73
2018-07-07T18:37:20.908Z,15.00
2018-07-07T18:39:54.558Z,15.23
2018-07-07T18:42:29.158Z,13.43
2018-07-07T18:45:02.853Z,13.70
2018-07-07T18:47:36.692Z,15.23
2018-07-07T18:50:10.551Z,13.30
2018-07-07T18:52:44.370Z,14.30
2018-07-07T18:55:18.110Z,14.17
2018-07-07T18:57:51.777Z,16.17
2018-07-07T19:00:25.801Z,15.20
2018-07-07T19:02:59.610Z,17.50
2018-07-07T19:05:33.347Z,14.90
2018-07-07T19:08:07.129Z,14.87
2018-07-07T19:10:40.801Z,16.50
2018-07-07T19:13:14.632Z,14.17
2018-07-07T19:15:49.170Z,14.67
2018-07-07T19:18:22.891Z,14.60
2018-07-07T19:20:57.532Z,15.67
2018-07-07T19:26:41.898Z,17.45
2018-07-07T19:29:15.681Z,16.70
2018-07-07T19:31:50.120Z,16.90
2018-07-07T19:34:30.265Z,15.10
2018-07-07T19:37:09.911Z,17.33
2018-07-07T19:39:43.694Z,16.17
2018-07-07T19:42:17.452Z,20.00
2018-07-07T19:44:52.125Z,16.90
2018-07-07T19:47:26.057Z,17.53
2018-07-07T19:49:59.868Z,16.97
2018-07-07T19:52:33.490Z,17.83
2018-07-07T19:55:07.390Z,18.77
2018-07-07T19:57:41.082Z,17.10
2018-07-07T20:00:15.629Z,16.77
2018-07-07T20:02:49.352Z,15.50
2018-07-07T20:05:23.241Z,15.33
2018-07-07T20:07:57.208Z,16.57
2018-07-07T20:10:31.739Z,16.00
2018-07-07T20:13:05.533Z,16.20
2018-07-07T20:15:39.457Z,16.37
2018-07-07T20:18:13.267Z,16.37
2018-07-07T20:20:47.059Z,16.80
2018-07-07T20:23:20.887Z,16.50
2018-07-07T20:25:54.617Z,16.10
2018-07-07T20:31:23.049Z,17.05
2018-07-07T20:33:56.931Z,17.23
2018-07-07T20:36:31.398Z,15.90
2018-07-07T20:39:05.831Z,15.20
2018-07-07T20:41:39.555Z,17.47
2018-07-07T20:44:13.424Z,17.00
2018-07-07T20:46:47.204Z,18.23
2018-07-07T20:49:21.046Z,16.70
2018-07-07T20:51:55.648Z,17.00
2018-07-07T20:54:29.477Z,18.27
2018-07-07T20:57:04.100Z,17.83
2018-07-07T20:59:37.836Z,17.53
2018-07-07T21:02:11.545Z,24.30
2018-07-07T21:04:46.220Z,17.10
2018-07-07T21:07:19.983Z,17.67
2018-07-07T21:09:53.775Z,18.00
2018-07-07T21:12:27.560Z,16.20
2018-07-07T21:15:02.190Z,16.90
2018-07-07T21:17:36.017Z,17.37
2018-07-07T21:20:10.616Z,16.27
2018-07-07T21:22:44.487Z,16.20
2018-07-07T21:25:18.948Z,16.40
2018-07-07T21:27:52.862Z,17.30
2018-07-07T21:30:27.446Z,18.20
2018-07-07T21:33:01.219Z,17.50
2018-07-07T21:35:34.893Z,16.70
2018-07-07T21:38:08.705Z,16.53
2018-07-07T21:40:43.340Z,17.60
2018-07-07T21:43:17.172Z,17.93
2018-07-07T21:45:50.905Z,17.33
2018-07-07T21:48:26.408Z,16.13
2018-07-07T21:51:00.076Z,16.20
2018-07-07T21:53:33.920Z,16.47
2018-07-07T21:56:07.838Z,17.73
2018-07-07T21:58:42.405Z,16.87
2018-07-07T22:01:17.068Z,16.80
2018-07-07T22:06:42.753Z,17.10
2018-07-07T22:09:16.460Z,17.67
2018-07-07T22:11:51.037Z,17.00
2018-07-07T22:14:24.731Z,16.60
2018-07-07T22:16:59.346Z,15.83
2018-07-07T22:19:33.156Z,16.03
2018-07-07T22:22:06.808Z,16.90
2018-07-07T22:24:41.351Z,23.73
2018-07-07T22:27:15.139Z,17.33
2018-07-07T22:29:48.781Z,15.73
2018-07-07T22:32:23.296Z,15.03
2018-07-07T22:34:57.928Z,15.97
2018-07-07T22:37:32.349Z,16.03
2018-07-07T22:40:06.942Z,17.47
2018-07-07T22:42:40.678Z,18.70
2018-07-07T22:45:14.386Z,17.87
2018-07-07T22:47:49.010Z,15.90
2018-07-07T22:50:23.604Z,17.33
2018-07-07T22:52:57.340Z,15.40
2018-07-07T22:55:31.864Z,17.03
2018-07-07T22:58:05.555Z,16.27
2018-07-07T23:00:39.398Z,16.20
2018-07-07T23:03:13.220Z,17.00
2018-07-07T23:05:46.964Z,15.00
2018-07-07T23:08:21.545Z,14.57
2018-07-07T23:10:55.269Z,14.23
2018-07-07T23:13:29.100Z,14.13
2018-07-07T23:16:02.856Z,14.23
2018-07-07T23:18:36.701Z,12.90
2018-07-07T23:21:11.117Z,11.40
2018-07-07T23:23:45.562Z,10.73
2018-07-07T23:26:19.392Z,12.90
2018-07-07T23:28:53.980Z,11.33
2018-07-07T23:31:27.845Z,13.63
2018-07-07T23:34:01.642Z,11.00
2018-07-07T23:36:35.377Z,11.77
2018-07-07T23:39:10.033Z,12.03
2018-07-07T23:41:43.820Z,9.70
2018-07-07T23:44:17.637Z,10.30
2018-07-07T23:46:51.453Z,10.40
2018-07-07T23:49:25.103Z,10.15
2018-07-07T23:51:58.844Z,10.73
2018-07-07T23:54:32.652Z,11.00
2018-07-07T23:57:07.171Z,10.17
2018-07-07T23:59:41.820Z,10.60
